Holicong, Pennsylvania
Current Conditions -  °F | °C
As of 5:54 PM on Thursday 27 Nov 2014 (Local Time) from KDYL Reporting Station
Few Clouds Few Clouds  
Wind Chill: 26°   Ceiling: Unl
Heat Index: 32°   Visibility: 10mi
Dew Point: 28°   Wind: 6mph
Humidity: 85%   Direction: 290°WNW
Pressure: 30.04"   Gusts: NA
Location:  40.34°N, 75.05°W
Report Text: KDYL 272254Z AUTO 29005KT 10SM FEW037 00/M02 A3004 RMK AO2 SLP180 T00001022 $
Loading
Personal Weather Stations






























Interactive Weather Map New forecast layout! Learn more

10-Day Weather Forecast

Advertisements
Track Severe Weather on mobile